sensor_id;sensor_type;location;lat;lon;timestamp;pressure;altitude;pressure_sealevel;temperature;humidity
6389;BME280;3227;42.654;23.360;2023-02-15T00:01:39;95598.41;;;4.66;72.32
6389;BME280;3227;42.654;23.360;2023-02-15T00:04:06;95608.34;;;4.60;72.59
6389;BME280;3227;42.654;23.360;2023-02-15T00:06:34;95602.63;;;4.66;72.88
6389;BME280;3227;42.654;23.360;2023-02-15T00:09:01;95597.41;;;4.63;72.55
6389;BME280;3227;42.654;23.360;2023-02-15T00:11:28;95583.69;;;4.57;72.64
6389;BME280;3227;42.654;23.360;2023-02-15T00:14:09;95565.38;;;4.44;72.52
6389;BME280;3227;42.654;23.360;2023-02-15T00:16:39;95605.22;;;4.67;72.66
6389;BME280;3227;42.654;23.360;2023-02-15T00:19:06;95611.22;;;4.69;72.75
6389;BME280;3227;42.654;23.360;2023-02-15T00:21:34;95619.44;;;4.64;72.65
6389;BME280;3227;42.654;23.360;2023-02-15T00:24:03;95617.72;;;4.63;72.80
6389;BME280;3227;42.654;23.360;2023-02-15T00:26:31;95618.06;;;4.72;73.31
6389;BME280;3227;42.654;23.360;2023-02-15T00:28:58;95614.72;;;4.50;73.80
6389;BME280;3227;42.654;23.360;2023-02-15T00:31:26;95608.53;;;4.44;73.53
6389;BME280;3227;42.654;23.360;2023-02-15T00:33:54;95619.84;;;4.52;73.83
6389;BME280;3227;42.654;23.360;2023-02-15T00:36:21;95618.72;;;4.45;73.91
6389;BME280;3227;42.654;23.360;2023-02-15T00:38:48;95611.41;;;4.53;73.54
6389;BME280;3227;42.654;23.360;2023-02-15T00:41:14;95590.00;;;4.46;73.62
6389;BME280;3227;42.654;23.360;2023-02-15T00:43:41;95625.03;;;4.76;72.92
6389;BME280;3227;42.654;23.360;2023-02-15T00:46:08;95629.03;;;4.71;72.50
6389;BME280;3227;42.654;23.360;2023-02-15T00:48:35;95634.25;;;4.74;73.39
6389;BME280;3227;42.654;23.360;2023-02-15T00:51:03;95624.44;;;4.61;73.13
6389;BME280;3227;42.654;23.360;2023-02-15T00:53:30;95615.53;;;4.72;73.38
6389;BME280;3227;42.654;23.360;2023-02-15T00:55:57;95620.53;;;4.69;72.80
6389;BME280;3227;42.654;23.360;2023-02-15T00:58:24;95616.47;;;4.74;73.15
6389;BME280;3227;42.654;23.360;2023-02-15T01:00:51;95615.78;;;4.78;72.99
6389;BME280;3227;42.654;23.360;2023-02-15T01:03:20;95619.09;;;4.75;72.95
6389;BME280;3227;42.654;23.360;2023-02-15T01:05:48;95609.88;;;4.79;72.93
6389;BME280;3227;42.654;23.360;2023-02-15T01:08:16;95609.53;;;4.70;72.70
6389;BME280;3227;42.654;23.360;2023-02-15T01:10:43;95596.88;;;4.49;73.15
6389;BME280;3227;42.654;23.360;2023-02-15T01:13:13;95606.88;;;4.67;72.67
6389;BME280;3227;42.654;23.360;2023-02-15T01:15:40;95600.34;;;4.51;73.09
6389;BME280;3227;42.654;23.360;2023-02-15T01:18:07;95602.59;;;4.43;74.00
6389;BME280;3227;42.654;23.360;2023-02-15T01:20:35;95605.50;;;4.52;73.89
6389;BME280;3227;42.654;23.360;2023-02-15T01:23:04;95600.06;;;4.66;73.15
6389;BME280;3227;42.654;23.360;2023-02-15T01:25:34;95577.09;;;4.63;73.01
6389;BME280;3227;42.654;23.360;2023-02-15T01:28:02;95607.63;;;4.85;72.29
6389;BME280;3227;42.654;23.360;2023-02-15T01:30:29;95597.78;;;4.72;72.74
6389;BME280;3227;42.654;23.360;2023-02-15T01:32:55;95600.38;;;4.73;72.67
6389;BME280;3227;42.654;23.360;2023-02-15T01:35:23;95589.00;;;4.64;73.07
6389;BME280;3227;42.654;23.360;2023-02-15T01:37:49;95593.41;;;4.68;73.25
6389;BME280;3227;42.654;23.360;2023-02-15T01:40:18;95543.41;;;4.44;73.52
6389;BME280;3227;42.654;23.360;2023-02-15T01:42:50;95572.31;;;4.70;73.06
6389;BME280;3227;42.654;23.360;2023-02-15T01:45:20;95590.22;;;4.73;72.77
6389;BME280;3227;42.654;23.360;2023-02-15T01:47:52;95592.59;;;4.69;72.81
6389;BME280;3227;42.654;23.360;2023-02-15T01:50:23;95553.09;;;4.54;73.04
6389;BME280;3227;42.654;23.360;2023-02-15T01:52:56;95580.44;;;4.62;73.32
6389;BME280;3227;42.654;23.360;2023-02-15T01:55:25;95580.44;;;4.62;74.01
6389;BME280;3227;42.654;23.360;2023-02-15T01:57:54;95573.09;;;4.47;74.28
6389;BME280;3227;42.654;23.360;2023-02-15T02:00:22;95578.94;;;4.44;74.17
6389;BME280;3227;42.654;23.360;2023-02-15T02:02:51;95573.31;;;4.51;74.09
6389;BME280;3227;42.654;23.360;2023-02-15T02:05:20;95576.13;;;4.38;74.87
6389;BME280;3227;42.654;23.360;2023-02-15T02:07:48;95574.53;;;4.40;74.64
6389;BME280;3227;42.654;23.360;2023-02-15T02:10:19;95579.47;;;4.37;74.94
6389;BME280;3227;42.654;23.360;2023-02-15T02:12:49;95578.06;;;4.23;76.07
6389;BME280;3227;42.654;23.360;2023-02-15T02:15:22;95577.50;;;4.30;75.78
6389;BME280;3227;42.654;23.360;2023-02-15T02:18:01;95589.69;;;4.39;75.57
6389;BME280;3227;42.654;23.360;2023-02-15T02:20:42;95583.00;;;4.41;74.79
6389;BME280;3227;42.654;23.360;2023-02-15T02:23:24;95543.91;;;4.15;74.54
6389;BME280;3227;42.654;23.360;2023-02-15T02:29:35;95588.88;;;4.61;74.00
6389;BME280;3227;42.654;23.360;2023-02-15T02:35:09;95592.47;;;4.66;73.93
6389;BME280;3227;42.654;23.360;2023-02-15T02:37:47;95594.84;;;4.61;74.66
6389;BME280;3227;42.654;23.360;2023-02-15T02:40:20;95596.16;;;4.53;74.46
6389;BME280;3227;42.654;23.360;2023-02-15T02:42:56;95594.19;;;4.67;74.57
6389;BME280;3227;42.654;23.360;2023-02-15T02:45:29;95596.22;;;4.75;74.57
6389;BME280;3227;42.654;23.360;2023-02-15T02:48:02;95581.88;;;4.76;74.21
6389;BME280;3227;42.654;23.360;2023-02-15T02:50:31;95591.16;;;4.75;74.60
6389;BME280;3227;42.654;23.360;2023-02-15T02:52:58;95534.81;;;4.41;74.27
6389;BME280;3227;42.654;23.360;2023-02-15T02:55:30;95590.06;;;4.69;74.98
6389;BME280;3227;42.654;23.360;2023-02-15T02:58:00;95575.13;;;4.55;74.10
6389;BME280;3227;42.654;23.360;2023-02-15T03:00:33;95598.34;;;4.65;74.29
6389;BME280;3227;42.654;23.360;2023-02-15T03:03:06;95602.97;;;4.54;75.11
6389;BME280;3227;42.654;23.360;2023-02-15T03:05:40;95612.53;;;4.59;75.43
6389;BME280;3227;42.654;23.360;2023-02-15T03:08:08;95605.97;;;4.65;75.04
6389;BME280;3227;42.654;23.360;2023-02-15T03:10:36;95610.53;;;4.73;74.42
6389;BME280;3227;42.654;23.360;2023-02-15T03:13:05;95614.56;;;4.68;74.74
6389;BME280;3227;42.654;23.360;2023-02-15T03:15:34;95621.88;;;4.61;75.14
6389;BME280;3227;42.654;23.360;2023-02-15T03:18:18;95609.06;;;4.57;75.35
6389;BME280;3227;42.654;23.360;2023-02-15T03:20:49;95609.53;;;4.70;75.25
6389;BME280;3227;42.654;23.360;2023-02-15T03:23:21;95618.31;;;4.78;74.38
6389;BME280;3227;42.654;23.360;2023-02-15T03:25:52;95620.31;;;4.85;73.68
6389;BME280;3227;42.654;23.360;2023-02-15T03:28:26;95614.28;;;4.83;73.74
6389;BME280;3227;42.654;23.360;2023-02-15T03:30:55;95616.84;;;4.83;74.84
6389;BME280;3227;42.654;23.360;2023-02-15T03:33:25;95613.66;;;4.88;74.42
6389;BME280;3227;42.654;23.360;2023-02-15T03:36:01;95613.50;;;4.84;74.64
6389;BME280;3227;42.654;23.360;2023-02-15T03:38:33;95609.88;;;4.79;73.97
6389;BME280;3227;42.654;23.360;2023-02-15T03:41:01;95607.00;;;4.70;74.49
6389;BME280;3227;42.654;23.360;2023-02-15T03:43:44;95612.63;;;4.83;74.48
6389;BME280;3227;42.654;23.360;2023-02-15T03:46:17;95606.56;;;4.80;74.44
6389;BME280;3227;42.654;23.360;2023-02-15T03:49:06;95603.34;;;4.84;74.17
6389;BME280;3227;42.654;23.360;2023-02-15T03:51:38;95607.34;;;4.79;74.48
6389;BME280;3227;42.654;23.360;2023-02-15T03:54:08;95606.63;;;4.81;74.98
6389;BME280;3227;42.654;23.360;2023-02-15T03:56:39;95611.41;;;4.74;74.75
6389;BME280;3227;42.654;23.360;2023-02-15T03:59:06;95604.78;;;4.77;77.11
6389;BME280;3227;42.654;23.360;2023-02-15T04:01:58;95606.09;;;4.90;76.04
6389;BME280;3227;42.654;23.360;2023-02-15T04:04:32;95608.19;;;5.00;75.47
6389;BME280;3227;42.654;23.360;2023-02-15T04:07:01;95610.59;;;4.97;74.56
6389;BME280;3227;42.654;23.360;2023-02-15T04:09:28;95611.41;;;4.96;74.45
6389;BME280;3227;42.654;23.360;2023-02-15T04:12:12;95617.63;;;4.82;74.74
6389;BME280;3227;42.654;23.360;2023-02-15T04:14:39;95628.97;;;4.90;74.47
6389;BME280;3227;42.654;23.360;2023-02-15T04:17:23;95622.94;;;4.88;73.99
6389;BME280;3227;42.654;23.360;2023-02-15T04:19:50;95620.75;;;4.97;74.10
6389;BME280;3227;42.654;23.360;2023-02-15T04:22:35;95626.78;;;4.99;74.47
6389;BME280;3227;42.654;23.360;2023-02-15T04:25:19;95637.44;;;4.90;74.20
6389;BME280;3227;42.654;23.360;2023-02-15T04:27:49;95592.47;;;4.66;74.47
6389;BME280;3227;42.654;23.360;2023-02-15T04:30:18;95646.91;;;4.94;74.22
6389;BME280;3227;42.654;23.360;2023-02-15T04:32:45;95644.44;;;4.96;74.20
6389;BME280;3227;42.654;23.360;2023-02-15T04:35:13;95654.72;;;4.99;74.11
6389;BME280;3227;42.654;23.360;2023-02-15T04:37:42;95657.94;;;4.95;74.39
6389;BME280;3227;42.654;23.360;2023-02-15T04:40:11;95656.31;;;4.97;74.40
6389;BME280;3227;42.654;23.360;2023-02-15T04:42:38;95652.84;;;4.95;74.77
6389;BME280;3227;42.654;23.360;2023-02-15T04:45:05;95658.19;;;5.01;74.53
6389;BME280;3227;42.654;23.360;2023-02-15T04:47:32;95650.00;;;5.08;74.59
6389;BME280;3227;42.654;23.360;2023-02-15T04:49:59;95642.53;;;5.13;74.39
6389;BME280;3227;42.654;23.360;2023-02-15T04:52:25;95651.97;;;5.15;73.85
6389;BME280;3227;42.654;23.360;2023-02-15T04:54:54;95651.38;;;5.00;74.46
6389;BME280;3227;42.654;23.360;2023-02-15T04:57:21;95659.44;;;5.12;74.38
6389;BME280;3227;42.654;23.360;2023-02-15T04:59:47;95663.00;;;5.16;74.35
6389;BME280;3227;42.654;23.360;2023-02-15T05:02:14;95656.00;;;5.10;74.32
6389;BME280;3227;42.654;23.360;2023-02-15T05:04:41;95673.28;;;5.19;73.93
6389;BME280;3227;42.654;23.360;2023-02-15T05:07:23;95667.78;;;5.30;73.53
6389;BME280;3227;42.654;23.360;2023-02-15T05:09:50;95592.91;;;4.78;73.38
6389;BME280;3227;42.654;23.360;2023-02-15T05:12:18;95675.63;;;5.14;74.18
6389;BME280;3227;42.654;23.360;2023-02-15T05:14:44;95676.56;;;5.16;73.87
6389;BME280;3227;42.654;23.360;2023-02-15T05:17:11;95672.97;;;5.11;74.07
6389;BME280;3227;42.654;23.360;2023-02-15T05:19:38;95677.13;;;5.09;74.28
6389;BME280;3227;42.654;23.360;2023-02-15T05:22:05;95677.75;;;5.04;74.24
6389;BME280;3227;42.654;23.360;2023-02-15T05:24:31;95704.50;;;5.16;73.91
6389;BME280;3227;42.654;23.360;2023-02-15T05:27:15;95689.38;;;5.19;73.77
6389;BME280;3227;42.654;23.360;2023-02-15T05:30:01;95691.38;;;5.26;73.66
6389;BME280;3227;42.654;23.360;2023-02-15T05:32:28;95678.16;;;5.14;73.89
6389;BME280;3227;42.654;23.360;2023-02-15T05:34:55;95695.31;;;5.20;74.15
6389;BME280;3227;42.654;23.360;2023-02-15T05:37:22;95688.56;;;5.20;74.47
6389;BME280;3227;42.654;23.360;2023-02-15T05:39:49;95694.41;;;5.18;74.40
6389;BME280;3227;42.654;23.360;2023-02-15T05:42:16;95687.88;;;5.24;74.06
6389;BME280;3227;42.654;23.360;2023-02-15T05:44:42;95690.50;;;5.26;73.73
6389;BME280;3227;42.654;23.360;2023-02-15T05:47:16;95699.88;;;5.28;73.53
6389;BME280;3227;42.654;23.360;2023-02-15T05:49:43;95696.53;;;5.29;74.00
6389;BME280;3227;42.654;23.360;2023-02-15T05:52:09;95701.03;;;5.36;73.11
6389;BME280;3227;42.654;23.360;2023-02-15T05:54:37;95699.44;;;5.39;73.38
6389;BME280;3227;42.654;23.360;2023-02-15T05:57:04;95702.19;;;5.45;73.43
6389;BME280;3227;42.654;23.360;2023-02-15T05:59:31;95695.34;;;5.42;72.62
6389;BME280;3227;42.654;23.360;2023-02-15T06:01:57;95698.13;;;5.48;72.42
6389;BME280;3227;42.654;23.360;2023-02-15T06:04:26;95698.47;;;5.35;72.38
6389;BME280;3227;42.654;23.360;2023-02-15T06:06:53;95703.56;;;5.35;73.03
6389;BME280;3227;42.654;23.360;2023-02-15T06:09:19;95704.44;;;5.37;72.80
6389;BME280;3227;42.654;23.360;2023-02-15T06:11:46;95705.84;;;5.29;72.72
6389;BME280;3227;42.654;23.360;2023-02-15T06:14:13;95702.25;;;5.24;73.69
6389;BME280;3227;42.654;23.360;2023-02-15T06:16:40;95707.75;;;5.34;72.92
6389;BME280;3227;42.654;23.360;2023-02-15T06:19:06;95703.78;;;5.41;72.65
6389;BME280;3227;42.654;23.360;2023-02-15T06:21:35;95705.53;;;5.44;72.81
6389;BME280;3227;42.654;23.360;2023-02-15T06:24:01;95712.38;;;5.45;72.24
6389;BME280;3227;42.654;23.360;2023-02-15T06:26:28;95710.81;;;5.48;71.99
6389;BME280;3227;42.654;23.360;2023-02-15T06:28:55;95714.22;;;5.49;72.33
6389;BME280;3227;42.654;23.360;2023-02-15T06:31:22;95710.97;;;5.53;72.37
6389;BME280;3227;42.654;23.360;2023-02-15T06:33:49;95701.81;;;5.56;72.35
6389;BME280;3227;42.654;23.360;2023-02-15T06:36:15;95686.63;;;5.58;71.65
6389;BME280;3227;42.654;23.360;2023-02-15T06:38:44;95684.63;;;5.73;71.32
6389;BME280;3227;42.654;23.360;2023-02-15T06:41:10;95703.72;;;5.84;71.05
6389;BME280;3227;42.654;23.360;2023-02-15T06:43:37;95703.03;;;5.88;70.17
6389;BME280;3227;42.654;23.360;2023-02-15T06:46:04;95708.44;;;5.97;70.36
6389;BME280;3227;42.654;23.360;2023-02-15T06:48:31;95715.41;;;6.03;69.39
6389;BME280;3227;42.654;23.360;2023-02-15T06:50:58;95673.28;;;5.87;69.56
6389;BME280;3227;42.654;23.360;2023-02-15T06:53:25;95712.94;;;6.04;69.72
6389;BME280;3227;42.654;23.360;2023-02-15T06:56:00;95628.34;;;5.64;69.91
6389;BME280;3227;42.654;23.360;2023-02-15T06:58:28;95700.81;;;5.97;69.68
6389;BME280;3227;42.654;23.360;2023-02-15T07:00:54;95700.44;;;6.10;69.40
6389;BME280;3227;42.654;23.360;2023-02-15T07:03:21;95702.28;;;6.15;69.30
6389;BME280;3227;42.654;23.360;2023-02-15T07:05:48;95675.63;;;6.05;68.92
6389;BME280;3227;42.654;23.360;2023-02-15T07:08:15;95627.94;;;5.76;68.39
6389;BME280;3227;42.654;23.360;2023-02-15T07:10:43;95700.25;;;6.30;67.98
6389;BME280;3227;42.654;23.360;2023-02-15T07:13:12;95700.47;;;6.36;67.33
6389;BME280;3227;42.654;23.360;2023-02-15T07:15:37;95698.03;;;6.39;66.96
6389;BME280;3227;42.654;23.360;2023-02-15T07:18:04;95705.81;;;6.43;67.17
6389;BME280;3227;42.654;23.360;2023-02-15T07:20:31;95711.09;;;6.48;66.92
6389;BME280;3227;42.654;23.360;2023-02-15T07:22:58;95719.59;;;6.74;66.07
6389;BME280;3227;42.654;23.360;2023-02-15T07:25:25;95697.44;;;6.71;65.38
6389;BME280;3227;42.654;23.360;2023-02-15T07:27:56;95656.25;;;6.58;64.66
6389;BME280;3227;42.654;23.360;2023-02-15T07:30:24;95715.94;;;7.18;64.00
6389;BME280;3227;42.654;23.360;2023-02-15T07:32:54;95714.25;;;7.18;63.66
6389;BME280;3227;42.654;23.360;2023-02-15T07:35:46;95714.78;;;7.35;63.17
6389;BME280;3227;42.654;23.360;2023-02-15T07:38:13;95704.31;;;7.54;62.76
6389;BME280;3227;42.654;23.360;2023-02-15T07:40:39;95699.34;;;7.87;61.99
6389;BME280;3227;42.654;23.360;2023-02-15T07:43:06;95705.63;;;7.98;60.57
6389;BME280;3227;42.654;23.360;2023-02-15T07:45:34;95663.97;;;7.70;60.34
6389;BME280;3227;42.654;23.360;2023-02-15T07:48:02;95678.97;;;7.89;59.80
6389;BME280;3227;42.654;23.360;2023-02-15T07:50:29;95693.34;;;8.15;59.53
6389;BME280;3227;42.654;23.360;2023-02-15T07:52:57;95690.03;;;8.19;59.35
6389;BME280;3227;42.654;23.360;2023-02-15T07:55:24;95675.22;;;8.06;58.98
6389;BME280;3227;42.654;23.360;2023-02-15T07:57:51;95704.38;;;8.16;59.23
6389;BME280;3227;42.654;23.360;2023-02-15T08:00:20;95707.19;;;8.25;59.19
6389;BME280;3227;42.654;23.360;2023-02-15T08:02:53;95669.25;;;8.07;58.47
6389;BME280;3227;42.654;23.360;2023-02-15T08:05:34;95701.38;;;8.29;58.14
6389;BME280;3227;42.654;23.360;2023-02-15T08:08:01;95708.41;;;8.06;59.09
6389;BME280;3227;42.654;23.360;2023-02-15T08:10:27;95704.31;;;8.13;59.65
6389;BME280;3227;42.654;23.360;2023-02-15T08:13:08;95711.50;;;8.26;59.36
6389;BME280;3227;42.654;23.360;2023-02-15T08:15:35;95711.13;;;8.12;58.30
6389;BME280;3227;42.654;23.360;2023-02-15T08:18:03;95711.56;;;7.99;59.69
6389;BME280;3227;42.654;23.360;2023-02-15T08:20:31;95664.72;;;7.66;59.99
6389;BME280;3227;42.654;23.360;2023-02-15T08:22:57;95706.19;;;7.88;59.73
6389;BME280;3227;42.654;23.360;2023-02-15T08:25:24;95718.34;;;7.69;60.25
6389;BME280;3227;42.654;23.360;2023-02-15T08:27:51;95716.03;;;7.48;60.55
6389;BME280;3227;42.654;23.360;2023-02-15T08:30:18;95722.75;;;7.19;62.04
6389;BME280;3227;42.654;23.360;2023-02-15T08:32:45;95727.34;;;7.29;62.55
6389;BME280;3227;42.654;23.360;2023-02-15T08:35:13;95722.53;;;7.38;61.93
6389;BME280;3227;42.654;23.360;2023-02-15T08:37:40;95721.56;;;7.35;61.41
6389;BME280;3227;42.654;23.360;2023-02-15T08:40:11;95723.25;;;7.34;61.47
6389;BME280;3227;42.654;23.360;2023-02-15T08:42:38;95720.16;;;7.44;60.78
6389;BME280;3227;42.654;23.360;2023-02-15T08:45:06;95723.44;;;7.40;60.43
6389;BME280;3227;42.654;23.360;2023-02-15T08:47:33;95727.81;;;7.44;61.32
6389;BME280;3227;42.654;23.360;2023-02-15T08:50:00;95726.06;;;7.43;61.43
6389;BME280;3227;42.654;23.360;2023-02-15T08:52:28;95722.81;;;7.47;61.47
6389;BME280;3227;42.654;23.360;2023-02-15T08:54:55;95723.19;;;7.59;61.10
6389;BME280;3227;42.654;23.360;2023-02-15T08:57:22;95725.00;;;7.63;60.26
6389;BME280;3227;42.654;23.360;2023-02-15T08:59:48;95716.78;;;7.45;60.23
6389;BME280;3227;42.654;23.360;2023-02-15T09:02:16;95723.97;;;7.57;60.16
6389;BME280;3227;42.654;23.360;2023-02-15T09:04:42;95721.72;;;7.68;59.48
6389;BME280;3227;42.654;23.360;2023-02-15T09:07:09;95723.44;;;7.69;58.95
6389;BME280;3227;42.654;23.360;2023-02-15T09:09:38;95734.59;;;7.44;59.20
6389;BME280;3227;42.654;23.360;2023-02-15T09:12:05;95729.88;;;7.29;59.52
6389;BME280;3227;42.654;23.360;2023-02-15T09:14:32;95727.91;;;7.47;64.34
6389;BME280;3227;42.654;23.360;2023-02-15T09:16:59;95719.59;;;7.81;60.61
6389;BME280;3227;42.654;23.360;2023-02-15T09:19:26;95727.81;;;8.01;57.31
6389;BME280;3227;42.654;23.360;2023-02-15T09:21:53;95721.88;;;8.02;57.42
6389;BME280;3227;42.654;23.360;2023-02-15T09:24:20;95720.31;;;7.77;57.60
6389;BME280;3227;42.654;23.360;2023-02-15T09:26:49;95714.72;;;7.89;59.60
6389;BME280;3227;42.654;23.360;2023-02-15T09:29:20;95678.88;;;7.86;58.42
6389;BME280;3227;42.654;23.360;2023-02-15T09:31:49;95724.34;;;8.29;57.12
6389;BME280;3227;42.654;23.360;2023-02-15T09:34:18;95731.03;;;8.54;56.62
6389;BME280;3227;42.654;23.360;2023-02-15T09:36:46;95725.75;;;8.48;56.17
6389;BME280;3227;42.654;23.360;2023-02-15T09:39:15;95720.31;;;8.35;55.78
6389;BME280;3227;42.654;23.360;2023-02-15T09:41:57;95721.66;;;8.24;56.74
6389;BME280;3227;42.654;23.360;2023-02-15T09:44:33;95725.72;;;8.18;55.99
6389;BME280;3227;42.654;23.360;2023-02-15T09:47:21;95728.34;;;8.19;55.68
6389;BME280;3227;42.654;23.360;2023-02-15T09:49:54;95722.47;;;8.22;55.72
6389;BME280;3227;42.654;23.360;2023-02-15T09:52:37;95726.38;;;8.40;54.77
6389;BME280;3227;42.654;23.360;2023-02-15T09:55:24;95718.97;;;8.50;54.88
6389;BME280;3227;42.654;23.360;2023-02-15T09:58:01;95724.94;;;8.50;54.70
6389;BME280;3227;42.654;23.360;2023-02-15T10:00:38;95719.06;;;8.53;54.83
6389;BME280;3227;42.654;23.360;2023-02-15T10:03:29;95704.41;;;8.46;55.24
6389;BME280;3227;42.654;23.360;2023-02-15T10:06:11;95716.13;;;8.37;55.63
6389;BME280;3227;42.654;23.360;2023-02-15T10:08:57;95652.31;;;8.09;55.62
6389;BME280;3227;42.654;23.360;2023-02-15T10:11:34;95711.59;;;8.60;55.29
6389;BME280;3227;42.654;23.360;2023-02-15T10:14:29;95715.13;;;8.65;56.28
6389;BME280;3227;42.654;23.360;2023-02-15T10:17:12;95698.06;;;8.63;55.88
6389;BME280;3227;42.654;23.360;2023-02-15T10:19:48;95712.13;;;8.80;54.47
6389;BME280;3227;42.654;23.360;2023-02-15T10:22:27;95684.41;;;8.62;54.09
6389;BME280;3227;42.654;23.360;2023-02-15T10:28:05;95658.81;;;8.29;54.41
6389;BME280;3227;42.654;23.360;2023-02-15T10:30:42;95698.53;;;8.50;54.32
6389;BME280;3227;42.654;23.360;2023-02-15T10:33:20;95698.28;;;8.40;55.10
6389;BME280;3227;42.654;23.360;2023-02-15T10:36:02;95689.66;;;8.35;56.05
6389;BME280;3227;42.654;23.360;2023-02-15T10:38:37;95693.53;;;8.53;56.10
6389;BME280;3227;42.654;23.360;2023-02-15T10:41:16;95688.50;;;8.56;56.07
6389;BME280;3227;42.654;23.360;2023-02-15T10:43:58;95693.56;;;8.54;55.60
6389;BME280;3227;42.654;23.360;2023-02-15T10:46:53;95669.78;;;8.57;56.04
6389;BME280;3227;42.654;23.360;2023-02-15T10:49:34;95676.63;;;8.58;55.34
6389;BME280;3227;42.654;23.360;2023-02-15T10:52:17;95674.16;;;8.61;55.91
6389;BME280;3227;42.654;23.360;2023-02-15T10:54:49;95676.56;;;8.55;55.11
6389;BME280;3227;42.654;23.360;2023-02-15T10:57:26;95670.63;;;8.57;55.14
6389;BME280;3227;42.654;23.360;2023-02-15T11:00:08;95671.06;;;8.74;55.07
6389;BME280;3227;42.654;23.360;2023-02-15T11:02:48;95670.09;;;8.69;54.98
6389;BME280;3227;42.654;23.360;2023-02-15T11:05:27;95669.63;;;8.51;54.76
6389;BME280;3227;42.654;23.360;2023-02-15T11:07:59;95669.44;;;8.43;56.12
6389;BME280;3227;42.654;23.360;2023-02-15T11:10:32;95669.22;;;8.35;55.94
6389;BME280;3227;42.654;23.360;2023-02-15T11:13:04;95657.53;;;8.44;55.67
6389;BME280;3227;42.654;23.360;2023-02-15T11:15:36;95664.28;;;8.42;55.25
6389;BME280;3227;42.654;23.360;2023-02-15T11:18:15;95653.81;;;8.32;55.36
6389;BME280;3227;42.654;23.360;2023-02-15T11:20:51;95661.94;;;8.19;55.31
6389;BME280;3227;42.654;23.360;2023-02-15T11:23:20;95648.16;;;8.13;56.44
6389;BME280;3227;42.654;23.360;2023-02-15T11:25:54;95661.41;;;7.99;57.18
6389;BME280;3227;42.654;23.360;2023-02-15T11:28:27;95650.47;;;8.03;56.98
6389;BME280;3227;42.654;23.360;2023-02-15T11:30:58;95622.91;;;7.92;57.20
6389;BME280;3227;42.654;23.360;2023-02-15T11:33:33;95595.50;;;7.85;56.63
6389;BME280;3227;42.654;23.360;2023-02-15T11:36:06;95625.06;;;8.08;56.64
6389;BME280;3227;42.654;23.360;2023-02-15T11:38:36;95657.00;;;8.25;56.32
6389;BME280;3227;42.654;23.360;2023-02-15T11:41:07;95663.22;;;8.33;56.20
6389;BME280;3227;42.654;23.360;2023-02-15T11:43:39;95610.66;;;8.10;55.91
6389;BME280;3227;42.654;23.360;2023-02-15T11:46:11;95655.00;;;8.45;56.16
6389;BME280;3227;42.654;23.360;2023-02-15T11:48:42;95646.69;;;8.52;56.26
6389;BME280;3227;42.654;23.360;2023-02-15T11:51:12;95615.13;;;8.50;55.14
6389;BME280;3227;42.654;23.360;2023-02-15T11:53:41;95584.13;;;8.36;55.74
6389;BME280;3227;42.654;23.360;2023-02-15T11:56:13;95633.66;;;8.76;55.83
6389;BME280;3227;42.654;23.360;2023-02-15T11:58:43;95626.81;;;8.75;55.41
6389;BME280;3227;42.654;23.360;2023-02-15T12:01:16;95625.09;;;8.75;54.87
6389;BME280;3227;42.654;23.360;2023-02-15T12:03:48;95615.63;;;8.70;54.62
6389;BME280;3227;42.654;23.360;2023-02-15T12:06:22;95612.94;;;8.65;54.65
6389;BME280;3227;42.654;23.360;2023-02-15T12:08:56;95603.88;;;8.44;55.20
6389;BME280;3227;42.654;23.360;2023-02-15T12:11:31;95612.06;;;8.63;54.83
6389;BME280;3227;42.654;23.360;2023-02-15T12:14:00;95607.03;;;8.68;54.45
6389;BME280;3227;42.654;23.360;2023-02-15T12:16:29;95589.63;;;8.52;54.06
6389;BME280;3227;42.654;23.360;2023-02-15T12:19:01;95610.19;;;8.56;54.73
6389;BME280;3227;42.654;23.360;2023-02-15T12:21:30;95606.09;;;8.63;55.02
6389;BME280;3227;42.654;23.360;2023-02-15T12:24:03;95604.16;;;8.54;54.71
6389;BME280;3227;42.654;23.360;2023-02-15T12:26:35;95600.56;;;8.46;54.65
6389;BME280;3227;42.654;23.360;2023-02-15T12:29:07;95597.41;;;8.56;55.23
6389;BME280;3227;42.654;23.360;2023-02-15T12:31:40;95598.72;;;8.76;54.02
6389;BME280;3227;42.654;23.360;2023-02-15T12:34:12;95596.72;;;8.65;54.45
6389;BME280;3227;42.654;23.360;2023-02-15T12:36:46;95576.97;;;8.56;54.09
6389;BME280;3227;42.654;23.360;2023-02-15T12:39:19;95591.94;;;8.77;54.76
6389;BME280;3227;42.654;23.360;2023-02-15T12:41:59;95587.50;;;8.70;54.84
6389;BME280;3227;42.654;23.360;2023-02-15T12:44:28;95578.13;;;8.69;54.81
6389;BME280;3227;42.654;23.360;2023-02-15T12:46:57;95581.56;;;8.71;55.00
6389;BME280;3227;42.654;23.360;2023-02-15T12:49:26;95552.84;;;8.45;54.58
6389;BME280;3227;42.654;23.360;2023-02-15T12:51:54;95569.53;;;8.67;54.92
6389;BME280;3227;42.654;23.360;2023-02-15T12:54:36;95563.44;;;8.60;54.62
6389;BME280;3227;42.654;23.360;2023-02-15T12:57:25;95561.06;;;8.68;54.90
6389;BME280;3227;42.654;23.360;2023-02-15T12:59:54;95564.56;;;8.73;54.77
6389;BME280;3227;42.654;23.360;2023-02-15T13:02:28;95562.91;;;8.75;54.89
6389;BME280;3227;42.654;23.360;2023-02-15T13:05:05;95562.22;;;8.81;54.94
6389;BME280;3227;42.654;23.360;2023-02-15T13:07:45;95571.91;;;8.95;53.80
6389;BME280;3227;42.654;23.360;2023-02-15T13:10:22;95571.91;;;8.95;54.17
6389;BME280;3227;42.654;23.360;2023-02-15T13:12:51;95519.56;;;8.78;54.61
6389;BME280;3227;42.654;23.360;2023-02-15T13:15:28;95549.97;;;9.05;53.80
6389;BME280;3227;42.654;23.360;2023-02-15T13:17:57;95555.84;;;9.01;53.40
6389;BME280;3227;42.654;23.360;2023-02-15T13:20:27;95552.53;;;9.05;54.51
6389;BME280;3227;42.654;23.360;2023-02-15T13:22:58;95550.19;;;9.15;54.24
6389;BME280;3227;42.654;23.360;2023-02-15T13:25:28;95496.81;;;8.89;53.86
6389;BME280;3227;42.654;23.360;2023-02-15T13:28:01;95487.44;;;8.91;53.44
6389;BME280;3227;42.654;23.360;2023-02-15T13:30:30;95560.75;;;9.31;53.54
6389;BME280;3227;42.654;23.360;2023-02-15T13:33:03;95560.50;;;9.19;53.27
6389;BME280;3227;42.654;23.360;2023-02-15T13:35:38;95558.88;;;9.24;53.88
6389;BME280;3227;42.654;23.360;2023-02-15T13:38:20;95558.88;;;9.24;53.71
6389;BME280;3227;42.654;23.360;2023-02-15T13:40:53;95542.59;;;9.19;53.50
6389;BME280;3227;42.654;23.360;2023-02-15T13:43:38;95556.59;;;9.36;54.17
6389;BME280;3227;42.654;23.360;2023-02-15T13:46:16;95562.63;;;9.38;53.69
6389;BME280;3227;42.654;23.360;2023-02-15T13:48:53;95488.00;;;8.76;53.58
6389;BME280;3227;42.654;23.360;2023-02-15T13:51:27;95566.69;;;8.89;53.88
6389;BME280;3227;42.654;23.360;2023-02-15T13:54:10;95569.63;;;8.70;54.66